sensor_id;sensor_type;location;lat;lon;timestamp;pressure;altitude;pressure_sealevel;temperature
48003;BMP280;33768;48.578;11.574;2023-09-07T00:03:01;96890.25;;;15.01
48003;BMP280;33768;48.578;11.574;2023-09-07T00:06:05;96891.66;;;14.94
48003;BMP280;33768;48.578;11.574;2023-09-07T00:09:09;96886.16;;;14.87
48003;BMP280;33768;48.578;11.574;2023-09-07T00:12:15;96896.56;;;14.81
48003;BMP280;33768;48.578;11.574;2023-09-07T00:15:19;96889.19;;;14.76
48003;BMP280;33768;48.578;11.574;2023-09-07T00:18:25;96895.59;;;14.71
48003;BMP280;33768;48.578;11.574;2023-09-07T00:21:29;96883.88;;;14.70
48003;BMP280;33768;48.578;11.574;2023-09-07T00:24:33;96891.19;;;14.68
48003;BMP280;33768;48.578;11.574;2023-09-07T00:27:37;96875.06;;;14.65
48003;BMP280;33768;48.578;11.574;2023-09-07T00:30:41;96881.44;;;14.60
48003;BMP280;33768;48.578;11.574;2023-09-07T00:33:46;96873.00;;;14.58
48003;BMP280;33768;48.578;11.574;2023-09-07T00:36:50;96875.53;;;14.56
48003;BMP280;33768;48.578;11.574;2023-09-07T00:39:54;96866.91;;;14.52
48003;BMP280;33768;48.578;11.574;2023-09-07T00:42:59;96869.66;;;14.52
48003;BMP280;33768;48.578;11.574;2023-09-07T00:46:03;96861.22;;;14.50
48003;BMP280;33768;48.578;11.574;2023-09-07T00:49:07;96876.25;;;14.49
48003;BMP280;33768;48.578;11.574;2023-09-07T00:52:11;96864.66;;;14.43
48003;BMP280;33768;48.578;11.574;2023-09-07T00:55:17;96865.00;;;14.39
48003;BMP280;33768;48.578;11.574;2023-09-07T00:58:21;96862.41;;;14.34
48003;BMP280;33768;48.578;11.574;2023-09-07T01:01:26;96869.16;;;14.33
48003;BMP280;33768;48.578;11.574;2023-09-07T01:04:30;96862.00;;;14.30
48003;BMP280;33768;48.578;11.574;2023-09-07T01:07:41;96862.34;;;14.27
48003;BMP280;33768;48.578;11.574;2023-09-07T01:10:47;96866.34;;;14.26
48003;BMP280;33768;48.578;11.574;2023-09-07T01:13:52;96869.66;;;14.24
48003;BMP280;33768;48.578;11.574;2023-09-07T01:16:58;96861.44;;;14.24
48003;BMP280;33768;48.578;11.574;2023-09-07T01:20:04;96867.13;;;14.26
48003;BMP280;33768;48.578;11.574;2023-09-07T01:23:13;96858.88;;;14.26
48003;BMP280;33768;48.578;11.574;2023-09-07T01:26:17;96854.44;;;14.23
48003;BMP280;33768;48.578;11.574;2023-09-07T01:29:21;96861.44;;;14.24
48003;BMP280;33768;48.578;11.574;2023-09-07T01:32:25;96861.63;;;14.26
48003;BMP280;33768;48.578;11.574;2023-09-07T01:35:33;96860.69;;;14.24
48003;BMP280;33768;48.578;11.574;2023-09-07T01:38:37;96857.34;;;14.18
48003;BMP280;33768;48.578;11.574;2023-09-07T01:41:42;96862.09;;;14.17
48003;BMP280;33768;48.578;11.574;2023-09-07T01:44:46;96868.66;;;14.14
48003;BMP280;33768;48.578;11.574;2023-09-07T01:47:51;96869.19;;;14.13
48003;BMP280;33768;48.578;11.574;2023-09-07T01:50:56;96864.44;;;14.13
48003;BMP280;33768;48.578;11.574;2023-09-07T01:54:00;96861.50;;;14.11
48003;BMP280;33768;48.578;11.574;2023-09-07T01:57:04;96853.06;;;14.09
48003;BMP280;33768;48.578;11.574;2023-09-07T02:00:09;96865.88;;;14.07
48003;BMP280;33768;48.578;11.574;2023-09-07T02:03:17;96846.44;;;14.05
48003;BMP280;33768;48.578;11.574;2023-09-07T02:06:21;96856.69;;;14.05
48003;BMP280;33768;48.578;11.574;2023-09-07T02:09:25;96856.69;;;14.05
48003;BMP280;33768;48.578;11.574;2023-09-07T02:12:29;96861.97;;;14.03
48003;BMP280;33768;48.578;11.574;2023-09-07T02:15:39;96865.81;;;14.00
48003;BMP280;33768;48.578;11.574;2023-09-07T02:18:44;96866.13;;;13.96
48003;BMP280;33768;48.578;11.574;2023-09-07T02:21:50;96873.00;;;13.90
48003;BMP280;33768;48.578;11.574;2023-09-07T02:24:56;96868.19;;;13.83
48003;BMP280;33768;48.578;11.574;2023-09-07T02:28:01;96875.47;;;13.80
48003;BMP280;33768;48.578;11.574;2023-09-07T02:31:06;96869.25;;;13.80
48003;BMP280;33768;48.578;11.574;2023-09-07T02:34:10;96886.06;;;13.76
48003;BMP280;33768;48.578;11.574;2023-09-07T02:37:14;96880.38;;;13.75
48003;BMP280;33768;48.578;11.574;2023-09-07T02:40:20;96875.09;;;13.76
48003;BMP280;33768;48.578;11.574;2023-09-07T02:43:24;96877.41;;;13.73
48003;BMP280;33768;48.578;11.574;2023-09-07T02:46:28;96877.03;;;13.69
48003;BMP280;33768;48.578;11.574;2023-09-07T02:49:33;96880.31;;;13.67
48003;BMP280;33768;48.578;11.574;2023-09-07T02:52:37;96879.34;;;13.65
48003;BMP280;33768;48.578;11.574;2023-09-07T02:55:41;96874.22;;;13.61
48003;BMP280;33768;48.578;11.574;2023-09-07T02:58:46;96878.03;;;13.58
48003;BMP280;33768;48.578;11.574;2023-09-07T03:01:50;96875.28;;;13.58
48003;BMP280;33768;48.578;11.574;2023-09-07T03:04:55;96874.34;;;13.56
48003;BMP280;33768;48.578;11.574;2023-09-07T03:08:02;96869.91;;;13.53
48003;BMP280;33768;48.578;11.574;2023-09-07T03:11:09;96877.19;;;13.50
48003;BMP280;33768;48.578;11.574;2023-09-07T03:14:13;96870.78;;;13.48
48003;BMP280;33768;48.578;11.574;2023-09-07T03:17:18;96871.66;;;13.43
48003;BMP280;33768;48.578;11.574;2023-09-07T03:20:23;96882.22;;;13.39
48003;BMP280;33768;48.578;11.574;2023-09-07T03:23:29;96881.59;;;13.33
48003;BMP280;33768;48.578;11.574;2023-09-07T03:26:35;96876.97;;;13.28
48003;BMP280;33768;48.578;11.574;2023-09-07T03:29:39;96876.56;;;13.24
48003;BMP280;33768;48.578;11.574;2023-09-07T03:32:43;96875.09;;;13.23
48003;BMP280;33768;48.578;11.574;2023-09-07T03:35:47;96890.06;;;13.22
48003;BMP280;33768;48.578;11.574;2023-09-07T03:38:51;96879.22;;;13.17
48003;BMP280;33768;48.578;11.574;2023-09-07T03:41:56;96878.59;;;13.11
48003;BMP280;33768;48.578;11.574;2023-09-07T03:45:01;96877.22;;;13.05
48003;BMP280;33768;48.578;11.574;2023-09-07T03:48:06;96883.78;;;13.02
48003;BMP280;33768;48.578;11.574;2023-09-07T03:51:11;96882.09;;;12.99
48003;BMP280;33768;48.578;11.574;2023-09-07T03:54:15;96887.38;;;12.97
48003;BMP280;33768;48.578;11.574;2023-09-07T03:57:19;96892.13;;;12.96
48003;BMP280;33768;48.578;11.574;2023-09-07T04:00:24;96883.69;;;12.94
48003;BMP280;33768;48.578;11.574;2023-09-07T04:03:28;96872.34;;;12.90
48003;BMP280;33768;48.578;11.574;2023-09-07T04:06:32;96877.38;;;12.86
48003;BMP280;33768;48.578;11.574;2023-09-07T04:09:36;96872.25;;;12.83
48003;BMP280;33768;48.578;11.574;2023-09-07T04:12:40;96878.03;;;12.80
48003;BMP280;33768;48.578;11.574;2023-09-07T04:15:45;96874.53;;;12.79
48003;BMP280;33768;48.578;11.574;2023-09-07T04:18:49;96884.78;;;12.79
48003;BMP280;33768;48.578;11.574;2023-09-07T04:21:54;96880.75;;;12.80
48003;BMP280;33768;48.578;11.574;2023-09-07T04:24:58;96883.50;;;12.80
48003;BMP280;33768;48.578;11.574;2023-09-07T04:28:02;96879.28;;;12.79
48003;BMP280;33768;48.578;11.574;2023-09-07T04:31:07;96890.25;;;12.79
48003;BMP280;33768;48.578;11.574;2023-09-07T04:34:11;96890.25;;;12.79
48003;BMP280;33768;48.578;11.574;2023-09-07T04:37:15;96879.81;;;12.77
48003;BMP280;33768;48.578;11.574;2023-09-07T04:40:20;96893.59;;;12.72
48003;BMP280;33768;48.578;11.574;2023-09-07T04:43:23;96890.22;;;12.66
48003;BMP280;33768;48.578;11.574;2023-09-07T04:46:27;96893.69;;;12.66
48003;BMP280;33768;48.578;11.574;2023-09-07T04:49:32;96895.16;;;12.67
48003;BMP280;33768;48.578;11.574;2023-09-07T04:52:37;96893.50;;;12.64
48003;BMP280;33768;48.578;11.574;2023-09-07T04:55:42;96897.06;;;12.59
48003;BMP280;33768;48.578;11.574;2023-09-07T04:58:46;96894.16;;;12.57
48003;BMP280;33768;48.578;11.574;2023-09-07T05:01:50;96884.66;;;12.58
48003;BMP280;33768;48.578;11.574;2023-09-07T05:04:54;96889.81;;;12.62
48003;BMP280;33768;48.578;11.574;2023-09-07T05:07:58;96891.69;;;12.67
48003;BMP280;33768;48.578;11.574;2023-09-07T05:11:03;96891.91;;;12.69
48003;BMP280;33768;48.578;11.574;2023-09-07T05:14:07;96897.59;;;12.71
48003;BMP280;33768;48.578;11.574;2023-09-07T05:17:11;96893.59;;;12.72
48003;BMP280;33768;48.578;11.574;2023-09-07T05:20:16;96903.47;;;12.75
48003;BMP280;33768;48.578;11.574;2023-09-07T05:23:21;96903.22;;;12.78
48003;BMP280;33768;48.578;11.574;2023-09-07T05:26:26;96903.72;;;12.77
48003;BMP280;33768;48.578;11.574;2023-09-07T05:29:31;96906.69;;;12.79
48003;BMP280;33768;48.578;11.574;2023-09-07T05:32:36;96916.06;;;12.83
48003;BMP280;33768;48.578;11.574;2023-09-07T05:35:41;96920.69;;;12.88
48003;BMP280;33768;48.578;11.574;2023-09-07T05:38:49;96927.31;;;12.92
48003;BMP280;33768;48.578;11.574;2023-09-07T05:41:53;96931.22;;;12.97
48003;BMP280;33768;48.578;11.574;2023-09-07T05:44:58;96932.91;;;13.00
48003;BMP280;33768;48.578;11.574;2023-09-07T05:48:03;96935.31;;;13.03
48003;BMP280;33768;48.578;11.574;2023-09-07T05:51:07;96939.97;;;13.08
48003;BMP280;33768;48.578;11.574;2023-09-07T05:54:11;96941.66;;;13.11
48003;BMP280;33768;48.578;11.574;2023-09-07T05:57:15;96936.25;;;13.18
48003;BMP280;33768;48.578;11.574;2023-09-07T06:00:20;96934.84;;;13.25
48003;BMP280;33768;48.578;11.574;2023-09-07T06:03:25;96939.69;;;13.32
48003;BMP280;33768;48.578;11.574;2023-09-07T06:06:30;96937.56;;;13.38
48003;BMP280;33768;48.578;11.574;2023-09-07T06:09:34;96934.72;;;13.43
48003;BMP280;33768;48.578;11.574;2023-09-07T06:12:39;96932.97;;;13.53
48003;BMP280;33768;48.578;11.574;2023-09-07T06:15:43;96923.38;;;13.59
48003;BMP280;33768;48.578;11.574;2023-09-07T06:18:47;96930.41;;;13.68
48003;BMP280;33768;48.578;11.574;2023-09-07T06:21:52;96936.19;;;13.77
48003;BMP280;33768;48.578;11.574;2023-09-07T06:24:56;96924.81;;;13.93
48003;BMP280;33768;48.578;11.574;2023-09-07T06:28:00;96934.41;;;14.20
48003;BMP280;33768;48.578;11.574;2023-09-07T06:31:04;96924.00;;;14.46
48003;BMP280;33768;48.578;11.574;2023-09-07T06:34:08;96929.59;;;14.61
48003;BMP280;33768;48.578;11.574;2023-09-07T06:37:12;96933.72;;;14.74
48003;BMP280;33768;48.578;11.574;2023-09-07T06:40:17;96935.47;;;14.92
48003;BMP280;33768;48.578;11.574;2023-09-07T06:43:22;96937.47;;;15.19
48003;BMP280;33768;48.578;11.574;2023-09-07T06:46:27;96952.50;;;15.61
48003;BMP280;33768;48.578;11.574;2023-09-07T06:49:31;96941.94;;;16.01
48003;BMP280;33768;48.578;11.574;2023-09-07T06:52:36;96940.91;;;16.56
48003;BMP280;33768;48.578;11.574;2023-09-07T06:55:41;96936.91;;;17.11
48003;BMP280;33768;48.578;11.574;2023-09-07T06:58:45;96923.34;;;17.59
48003;BMP280;33768;48.578;11.574;2023-09-07T07:01:49;96937.09;;;17.98
48003;BMP280;33768;48.578;11.574;2023-09-07T07:04:53;96939.09;;;18.29
48003;BMP280;33768;48.578;11.574;2023-09-07T07:07:58;96926.75;;;18.54
48003;BMP280;33768;48.578;11.574;2023-09-07T07:11:03;96937.44;;;18.74
48003;BMP280;33768;48.578;11.574;2023-09-07T07:14:08;96938.59;;;18.88
48003;BMP280;33768;48.578;11.574;2023-09-07T07:17:13;96937.72;;;19.02
48003;BMP280;33768;48.578;11.574;2023-09-07T07:20:17;96939.63;;;19.16
48003;BMP280;33768;48.578;11.574;2023-09-07T07:23:21;96940.28;;;19.24
48003;BMP280;33768;48.578;11.574;2023-09-07T07:26:26;96935.03;;;19.45
48003;BMP280;33768;48.578;11.574;2023-09-07T07:29:30;96946.09;;;19.62
48003;BMP280;33768;48.578;11.574;2023-09-07T07:32:34;96943.38;;;19.88
48003;BMP280;33768;48.578;11.574;2023-09-07T07:35:38;96943.38;;;20.14
48003;BMP280;33768;48.578;11.574;2023-09-07T07:38:44;96939.63;;;20.28
48003;BMP280;33768;48.578;11.574;2023-09-07T07:41:48;96941.53;;;20.61
48003;BMP280;33768;48.578;11.574;2023-09-07T07:44:52;96933.28;;;20.80
48003;BMP280;33768;48.578;11.574;2023-09-07T07:47:56;96930.53;;;20.89
48003;BMP280;33768;48.578;11.574;2023-09-07T07:51:04;96937.25;;;21.24
48003;BMP280;33768;48.578;11.574;2023-09-07T07:54:09;96940.50;;;21.58
48003;BMP280;33768;48.578;11.574;2023-09-07T07:57:13;96935.19;;;21.90
48003;BMP280;33768;48.578;11.574;2023-09-07T08:00:18;96929.31;;;22.14
48003;BMP280;33768;48.578;11.574;2023-09-07T08:03:29;96927.78;;;22.31
48003;BMP280;33768;48.578;11.574;2023-09-07T08:06:34;96929.16;;;22.51
48003;BMP280;33768;48.578;11.574;2023-09-07T08:09:39;96929.41;;;22.55
48003;BMP280;33768;48.578;11.574;2023-09-07T08:12:43;96927.63;;;22.29
48003;BMP280;33768;48.578;11.574;2023-09-07T08:15:48;96925.41;;;22.37
48003;BMP280;33768;48.578;11.574;2023-09-07T08:18:53;96927.75;;;22.71
48003;BMP280;33768;48.578;11.574;2023-09-07T08:21:58;96926.94;;;23.10
48003;BMP280;33768;48.578;11.574;2023-09-07T08:25:02;96927.84;;;23.44
48003;BMP280;33768;48.578;11.574;2023-09-07T08:28:07;96914.81;;;23.58
48003;BMP280;33768;48.578;11.574;2023-09-07T08:31:11;96918.69;;;23.53
48003;BMP280;33768;48.578;11.574;2023-09-07T08:34:17;96917.53;;;23.67
48003;BMP280;33768;48.578;11.574;2023-09-07T08:37:24;96914.44;;;23.84
48003;BMP280;33768;48.578;11.574;2023-09-07T08:40:28;96914.66;;;24.54
48003;BMP280;33768;48.578;11.574;2023-09-07T08:43:35;96900.59;;;25.33
48003;BMP280;33768;48.578;11.574;2023-09-07T08:46:44;96909.69;;;25.94
48003;BMP280;33768;48.578;11.574;2023-09-07T08:49:49;96900.72;;;26.47
48003;BMP280;33768;48.578;11.574;2023-09-07T08:52:54;96884.84;;;27.18
48003;BMP280;33768;48.578;11.574;2023-09-07T08:55:59;96884.22;;;27.19
48003;BMP280;33768;48.578;11.574;2023-09-07T08:59:05;96883.53;;;27.76
48003;BMP280;33768;48.578;11.574;2023-09-07T09:02:09;96872.44;;;28.52
48003;BMP280;33768;48.578;11.574;2023-09-07T09:05:15;96869.00;;;29.01
48003;BMP280;33768;48.578;11.574;2023-09-07T09:08:19;96875.72;;;29.10
48003;BMP280;33768;48.578;11.574;2023-09-07T09:11:27;96871.31;;;29.22
48003;BMP280;33768;48.578;11.574;2023-09-07T09:14:31;96862.00;;;29.35
48003;BMP280;33768;48.578;11.574;2023-09-07T09:17:36;96868.09;;;29.79
48003;BMP280;33768;48.578;11.574;2023-09-07T09:20:40;96858.63;;;30.44
48003;BMP280;33768;48.578;11.574;2023-09-07T09:23:44;96864.94;;;31.00
48003;BMP280;33768;48.578;11.574;2023-09-07T09:26:48;96866.47;;;31.43
48003;BMP280;33768;48.578;11.574;2023-09-07T09:29:52;96864.91;;;31.81
48003;BMP280;33768;48.578;11.574;2023-09-07T09:32:56;96862.19;;;32.06
48003;BMP280;33768;48.578;11.574;2023-09-07T09:36:02;96867.78;;;32.27
48003;BMP280;33768;48.578;11.574;2023-09-07T09:39:06;96844.16;;;32.40
48003;BMP280;33768;48.578;11.574;2023-09-07T09:42:12;96851.41;;;32.46
48003;BMP280;33768;48.578;11.574;2023-09-07T09:45:17;96851.66;;;32.08
48003;BMP280;33768;48.578;11.574;2023-09-07T09:48:22;96849.97;;;32.22
48003;BMP280;33768;48.578;11.574;2023-09-07T09:51:27;96846.31;;;32.41
48003;BMP280;33768;48.578;11.574;2023-09-07T09:54:34;96849.78;;;31.93
48003;BMP280;33768;48.578;11.574;2023-09-07T09:57:39;96847.91;;;32.02
48003;BMP280;33768;48.578;11.574;2023-09-07T10:00:48;96850.56;;;31.75
48003;BMP280;33768;48.578;11.574;2023-09-07T10:03:54;96846.84;;;31.89
48003;BMP280;33768;48.578;11.574;2023-09-07T10:06:59;96841.19;;;32.59
48003;BMP280;33768;48.578;11.574;2023-09-07T10:10:12;96838.28;;;32.80
48003;BMP280;33768;48.578;11.574;2023-09-07T10:13:28;96832.78;;;32.86
48003;BMP280;33768;48.578;11.574;2023-09-07T10:16:53;96828.25;;;33.27
48003;BMP280;33768;48.578;11.574;2023-09-07T10:20:03;96819.31;;;33.66
48003;BMP280;33768;48.578;11.574;2023-09-07T10:23:11;96816.34;;;33.60
48003;BMP280;33768;48.578;11.574;2023-09-07T10:26:16;96821.41;;;33.36
48003;BMP280;33768;48.578;11.574;2023-09-07T10:29:20;96826.84;;;33.28
48003;BMP280;33768;48.578;11.574;2023-09-07T10:32:25;96817.22;;;33.12
48003;BMP280;33768;48.578;11.574;2023-09-07T10:35:34;96821.78;;;32.98
48003;BMP280;33768;48.578;11.574;2023-09-07T10:38:39;96825.81;;;32.89
48003;BMP280;33768;48.578;11.574;2023-09-07T10:41:45;96819.16;;;33.06
48003;BMP280;33768;48.578;11.574;2023-09-07T10:44:49;96819.06;;;33.27
48003;BMP280;33768;48.578;11.574;2023-09-07T10:47:53;96817.88;;;33.10
48003;BMP280;33768;48.578;11.574;2023-09-07T10:50:57;96819.22;;;33.08
48003;BMP280;33768;48.578;11.574;2023-09-07T10:54:01;96819.84;;;33.31
48003;BMP280;33768;48.578;11.574;2023-09-07T10:57:08;96815.50;;;33.01
48003;BMP280;33768;48.578;11.574;2023-09-07T11:00:13;96832.38;;;32.97
48003;BMP280;33768;48.578;11.574;2023-09-07T11:03:18;96808.44;;;33.00
48003;BMP280;33768;48.578;11.574;2023-09-07T11:06:22;96819.41;;;32.88
48003;BMP280;33768;48.578;11.574;2023-09-07T11:09:26;96823.06;;;32.68
48003;BMP280;33768;48.578;11.574;2023-09-07T11:12:36;96816.31;;;32.78
48003;BMP280;33768;48.578;11.574;2023-09-07T11:15:42;96811.88;;;32.46
48003;BMP280;33768;48.578;11.574;2023-09-07T11:18:46;96812.19;;;32.58
48003;BMP280;33768;48.578;11.574;2023-09-07T11:21:53;96805.94;;;32.37
48003;BMP280;33768;48.578;11.574;2023-09-07T11:24:59;96802.44;;;32.38
48003;BMP280;33768;48.578;11.574;2023-09-07T11:28:05;96798.25;;;32.16
48003;BMP280;33768;48.578;11.574;2023-09-07T11:31:09;96811.75;;;31.73
48003;BMP280;33768;48.578;11.574;2023-09-07T11:34:14;96804.66;;;31.51
48003;BMP280;33768;48.578;11.574;2023-09-07T11:37:25;96800.22;;;31.23
48003;BMP280;33768;48.578;11.574;2023-09-07T11:40:30;96809.03;;;31.14
48003;BMP280;33768;48.578;11.574;2023-09-07T11:43:34;96797.13;;;31.15
48003;BMP280;33768;48.578;11.574;2023-09-07T11:46:39;96794.31;;;31.15
48003;BMP280;33768;48.578;11.574;2023-09-07T11:49:43;96794.19;;;31.32
48003;BMP280;33768;48.578;11.574;2023-09-07T11:52:47;96799.03;;;31.51
48003;BMP280;33768;48.578;11.574;2023-09-07T11:55:51;96801.81;;;31.72
48003;BMP280;33768;48.578;11.574;2023-09-07T11:58:55;96789.63;;;31.66
48003;BMP280;33768;48.578;11.574;2023-09-07T12:01:59;96791.22;;;31.49
48003;BMP280;33768;48.578;11.574;2023-09-07T12:05:05;96790.28;;;31.64
48003;BMP280;33768;48.578;11.574;2023-09-07T12:08:14;96797.13;;;31.79
48003;BMP280;33768;48.578;11.574;2023-09-07T12:11:18;96794.06;;;31.73
48003;BMP280;33768;48.578;11.574;2023-09-07T12:14:23;96785.16;;;32.03
48003;BMP280;33768;48.578;11.574;2023-09-07T12:17:26;96781.38;;;31.95
48003;BMP280;33768;48.578;11.574;2023-09-07T12:20:31;96801.59;;;31.87
48003;BMP280;33768;48.578;11.574;2023-09-07T12:23:35;96796.63;;;31.86
48003;BMP280;33768;48.578;11.574;2023-09-07T12:26:39;96787.47;;;31.85
48003;BMP280;33768;48.578;11.574;2023-09-07T12:29:43;96778.44;;;31.91
48003;BMP280;33768;48.578;11.574;2023-09-07T12:32:47;96773.22;;;31.82
48003;BMP280;33768;48.578;11.574;2023-09-07T12:35:51;96775.06;;;31.52
48003;BMP280;33768;48.578;11.574;2023-09-07T12:38:55;96780.53;;;31.46
48003;BMP280;33768;48.578;11.574;2023-09-07T12:42:05;96779.91;;;31.48
48003;BMP280;33768;48.578;11.574;2023-09-07T12:45:10;96773.94;;;31.38
48003;BMP280;33768;48.578;11.574;2023-09-07T12:48:19;96774.03;;;31.20
48003;BMP280;33768;48.578;11.574;2023-09-07T12:51:24;96764.56;;;31.31
48003;BMP280;33768;48.578;11.574;2023-09-07T12:54:28;96762.69;;;31.40
48003;BMP280;33768;48.578;11.574;2023-09-07T12:57:32;96760.63;;;31.40
48003;BMP280;33768;48.578;11.574;2023-09-07T13:00:36;96763.84;;;31.31
48003;BMP280;33768;48.578;11.574;2023-09-07T13:03:41;96766.84;;;31.16
48003;BMP280;33768;48.578;11.574;2023-09-07T13:06:45;96754.63;;;30.88
48003;BMP280;33768;48.578;11.574;2023-09-07T13:09:48;96757.63;;;30.94
48003;BMP280;33768;48.578;11.574;2023-09-07T13:12:53;96762.97;;;31.05
48003;BMP280;33768;48.578;11.574;2023-09-07T13:15:58;96760.16;;;31.05
48003;BMP280;33768;48.578;11.574;2023-09-07T13:19:02;96759.44;;;31.05
48003;BMP280;33768;48.578;11.574;2023-09-07T13:22:06;96752.47;;;31.08
48003;BMP280;33768;48.578;11.574;2023-09-07T13:25:11;96748.81;;;30.82
48003;BMP280;33768;48.578;11.574;2023-09-07T13:28:14;96755.69;;;30.77
48003;BMP280;33768;48.578;11.574;2023-09-07T13:31:19;96742.38;;;31.01
48003;BMP280;33768;48.578;11.574;2023-09-07T13:34:23;96752.28;;;31.23
48003;BMP280;33768;48.578;11.574;2023-09-07T13:37:27;96741.91;;;31.29
48003;BMP280;33768;48.578;11.574;2023-09-07T13:40:31;96745.19;;;31.22
48003;BMP280;33768;48.578;11.574;2023-09-07T13:43:35;96734.56;;;30.99
48003;BMP280;33768;48.578;11.574;2023-09-07T13:46:39;96744.88;;;30.91
48003;BMP280;33768;48.578;11.574;2023-09-07T13:49:43;96740.13;;;30.76
48003;BMP280;33768;48.578;11.574;2023-09-07T13:52:48;96725.69;;;30.66
48003;BMP280;33768;48.578;11.574;2023-09-07T13:55:52;96733.16;;;30.39
48003;BMP280;33768;48.578;11.574;2023-09-07T13:58:56;96735.56;;;30.27
48003;BMP280;33768;48.578;11.574;2023-09-07T14:02:00;96732.63;;;30.06
48003;BMP280;33768;48.578;11.574;2023-09-07T14:05:04;96739.69;;;29.88
48003;BMP280;33768;48.578;11.574;2023-09-07T14:08:08;96744.19;;;29.94
48003;BMP280;33768;48.578;11.574;2023-09-07T14:11:12;96744.31;;;29.98
48003;BMP280;33768;48.578;11.574;2023-09-07T14:14:17;96739.06;;;29.89
48003;BMP280;33768;48.578;11.574;2023-09-07T14:17:21;96737.19;;;29.76
48003;BMP280;33768;48.578;11.574;2023-09-07T14:20:25;96734.78;;;29.69
48003;BMP280;33768;48.578;11.574;2023-09-07T14:23:29;96732.19;;;29.75
48003;BMP280;33768;48.578;11.574;2023-09-07T14:26:34;96734.69;;;29.50
48003;BMP280;33768;48.578;11.574;2023-09-07T14:29:38;96738.19;;;29.31
48003;BMP280;33768;48.578;11.574;2023-09-07T14:32:42;96736.00;;;29.12
48003;BMP280;33768;48.578;11.574;2023-09-07T14:35:46;96739.78;;;29.19
48003;BMP280;33768;48.578;11.574;2023-09-07T14:38:50;96750.91;;;28.99
48003;BMP280;33768;48.578;11.574;2023-09-07T14:41:55;96743.75;;;28.79
48003;BMP280;33768;48.578;11.574;2023-09-07T14:44:59;96733.81;;;28.76
48003;BMP280;33768;48.578;11.574;2023-09-07T14:48:06;96735.81;;;28.74
48003;BMP280;33768;48.578;11.574;2023-09-07T14:51:10;96736.91;;;28.67
48003;BMP280;33768;48.578;11.574;2023-09-07T14:54:14;96732.47;;;28.62
48003;BMP280;33768;48.578;11.574;2023-09-07T14:57:18;96736.91;;;28.67
48003;BMP280;33768;48.578;11.574;2023-09-07T15:00:22;96733.03;;;28.59
48003;BMP280;33768;48.578;11.574;2023-09-07T15:03:26;96732.25;;;28.56
48003;BMP280;33768;48.578;11.574;2023-09-07T15:06:30;96737.69;;;28.37
48003;BMP280;33768;48.578;11.574;2023-09-07T15:09:36;96726.41;;;28.20
48003;BMP280;33768;48.578;11.574;2023-09-07T15:12:41;96724.38;;;28.05
48003;BMP280;33768;48.578;11.574;2023-09-07T15:15:45;96726.78;;;27.97
48003;BMP280;33768;48.578;11.574;2023-09-07T15:18:49;96738.38;;;27.90
48003;BMP280;33768;48.578;11.574;2023-09-07T15:21:55;96730.13;;;27.78
48003;BMP280;33768;48.578;11.574;2023-09-07T15:24:59;96732.72;;;27.59
48003;BMP280;33768;48.578;11.574;2023-09-07T15:28:04;96747.06;;;27.36
48003;BMP280;33768;48.578;11.574;2023-09-07T15:31:12;96735.44;;;27.13
48003;BMP280;33768;48.578;11.574;2023-09-07T15:34:16;96739.56;;;26.97
48003;BMP280;33768;48.578;11.574;2023-09-07T15:37:20;96729.34;;;26.75
48003;BMP280;33768;48.578;11.574;2023-09-07T15:40:24;96727.72;;;26.57
48003;BMP280;33768;48.578;11.574;2023-09-07T15:43:28;96735.72;;;26.49
48003;BMP280;33768;48.578;11.574;2023-09-07T15:46:32;96735.81;;;26.38
48003;BMP280;33768;48.578;11.574;2023-09-07T15:49:36;96734.91;;;26.20
48003;BMP280;33768;48.578;11.574;2023-09-07T15:52:44;96735.06;;;26.10
48003;BMP280;33768;48.578;11.574;2023-09-07T15:55:50;96741.09;;;26.05
48003;BMP280;33768;48.578;11.574;2023-09-07T15:58:54;96736.94;;;25.93
48003;BMP280;33768;48.578;11.574;2023-09-07T16:01:58;96744.59;;;25.79
48003;BMP280;33768;48.578;11.574;2023-09-07T16:05:03;96744.47;;;25.64
48003;BMP280;33768;48.578;11.574;2023-09-07T16:08:07;96753.28;;;25.47
48003;BMP280;33768;48.578;11.574;2023-09-07T16:11:11;96743.63;;;25.37
48003;BMP280;33768;48.578;11.574;2023-09-07T16:14:16;96750.03;;;25.26
48003;BMP280;33768;48.578;11.574;2023-09-07T16:17:20;96753.09;;;25.18
48003;BMP280;33768;48.578;11.574;2023-09-07T16:20:24;96745.00;;;25.11
48003;BMP280;33768;48.578;11.574;2023-09-07T16:23:28;96747.22;;;25.01
48003;BMP280;33768;48.578;11.574;2023-09-07T16:26:33;96740.97;;;24.89
48003;BMP280;33768;48.578;11.574;2023-09-07T16:29:37;96734.69;;;24.78
48003;BMP280;33768;48.578;11.574;2023-09-07T16:32:41;96737.13;;;24.72
48003;BMP280;33768;48.578;11.574;2023-09-07T16:35:48;96742.03;;;24.60
48003;BMP280;33768;48.578;11.574;2023-09-07T16:38:52;96734.41;;;24.49
48003;BMP280;33768;48.578;11.574;2023-09-07T16:41:56;96740.75;;;24.38
48003;BMP280;33768;48.578;11.574;2023-09-07T16:45:01;96734.56;;;24.28
48003;BMP280;33768;48.578;11.574;2023-09-07T16:48:05;96741.47;;;24.16
48003;BMP280;33768;48.578;11.574;2023-09-07T16:51:09;96738.72;;;24.05
48003;BMP280;33768;48.578;11.574;2023-09-07T16:54:13;96745.03;;;23.94
48003;BMP280;33768;48.578;11.574;2023-09-07T16:57:18;96752.66;;;23.82
48003;BMP280;33768;48.578;11.574;2023-09-07T17:00:22;96746.97;;;23.69
48003;BMP280;33768;48.578;11.574;2023-09-07T17:03:26;96752.25;;;23.54
48003;BMP280;33768;48.578;11.574;2023-09-07T17:06:30;96750.78;;;23.41
48003;BMP280;33768;48.578;11.574;2023-09-07T17:09:35;96749.16;;;23.27
48003;BMP280;33768;48.578;11.574;2023-09-07T17:12:40;96741.84;;;23.11
48003;BMP280;33768;48.578;11.574;2023-09-07T17:15:50;96747.38;;;22.99
48003;BMP280;33768;48.578;11.574;2023-09-07T17:18:56;96743.09;;;22.87
48003;BMP280;33768;48.578;11.574;2023-09-07T17:22:00;96754.03;;;22.74
48003;BMP280;33768;48.578;11.574;2023-09-07T17:25:05;96760.16;;;22.61
48003;BMP280;33768;48.578;11.574;2023-09-07T17:28:09;96755.13;;;22.48
48003;BMP280;33768;48.578;11.574;2023-09-07T17:31:14;96751.41;;;22.34